Time;durP1;ratioP1;P1;durP2;ratioP2;P2;SDS_P1;SDS_P2;PMS_P1;PMS_P2;Temp;Humidity;BMP_temperature;BMP_pressure;BME280_temperature;BME280_humidity;BME280_pressure;Samples;Min_cycle;Max_cycle;Signal;HPM_P1;HPM_P2
2023/09/16 06:02:57;;;;;;;27.43;15.37;;;;;;;;;;4956053;28;20504;-72
2023/09/16 06:05:23;;;;;;;23.20;13.43;;;;;;;;;;4974780;28;20424;-74
2023/09/16 06:07:49;;;;;;;21.67;13.67;;;;;;;;;;4975035;28;20404;-74
2023/09/16 06:10:15;;;;;;;22.70;14.17;;;;;;;;;;4974900;28;20408;-74
2023/09/16 06:12:41;;;;;;;24.60;14.73;;;;;;;;;;4974522;28;20899;-74
2023/09/16 06:15:08;;;;;;;23.73;14.30;;;;;;;;;;4997886;23;20495;-71
2023/09/16 06:17:34;;;;;;;23.43;16.07;;;;;;;;;;4974719;28;20412;-71
2023/09/16 06:20:00;;;;;;;22.13;14.80;;;;;;;;;;4974519;28;20463;-71
2023/09/16 06:22:26;;;;;;;23.33;13.30;;;;;;;;;;4974360;28;20423;-71
2023/09/16 06:24:52;;;;;;;25.33;13.60;;;;;;;;;;4973131;28;20459;-71
2023/09/16 06:27:18;;;;;;;24.03;15.40;;;;;;;;;;4974445;28;20890;-71
2023/09/16 06:29:46;;;;;;;20.97;13.97;;;;;;;;;;4974240;28;20428;-72
2023/09/16 06:32:12;;;;;;;20.70;14.53;;;;;;;;;;4974052;28;20415;-71
2023/09/16 06:34:38;;;;;;;24.67;16.70;;;;;;;;;;4972305;28;20774;-71
2023/09/16 06:37:07;;;;;;;19.90;13.67;;;;;;;;;;4954874;28;20413;-71
2023/09/16 06:39:33;;;;;;;23.50;14.70;;;;;;;;;;4955058;28;20496;-72
2023/09/16 06:41:59;;;;;;;18.97;13.13;;;;;;;;;;4955124;29;20467;-72
2023/09/16 06:44:25;;;;;;;20.80;14.27;;;;;;;;;;4954763;29;20429;-72
2023/09/16 06:46:51;;;;;;;22.73;14.50;;;;;;;;;;4954689;28;20424;-73
2023/09/16 06:49:20;;;;;;;22.17;14.30;;;;;;;;;;4954857;28;20427;-76
2023/09/16 06:51:46;;;;;;;23.03;14.80;;;;;;;;;;4954670;29;20421;-74
2023/09/16 06:54:12;;;;;;;20.97;14.00;;;;;;;;;;4954781;29;20424;-75
2023/09/16 06:56:38;;;;;;;22.17;15.23;;;;;;;;;;4954845;29;20420;-74
2023/09/16 06:59:04;;;;;;;21.33;13.30;;;;;;;;;;4972675;28;20826;-76
2023/09/16 07:01:30;;;;;;;25.20;14.00;;;;;;;;;;4973411;28;20432;-74
2023/09/16 07:03:57;;;;;;;25.03;14.30;;;;;;;;;;4972290;28;20408;-74
2023/09/16 07:06:23;;;;;;;19.23;13.23;;;;;;;;;;4973585;28;20423;-74
2023/09/16 07:08:49;;;;;;;20.27;14.10;;;;;;;;;;4973803;28;20454;-74
2023/09/16 07:11:17;;;;;;;19.10;12.87;;;;;;;;;;4973792;28;20416;-74
2023/09/16 07:13:43;;;;;;;16.90;12.43;;;;;;;;;;4973515;28;20408;-74
2023/09/16 07:16:11;;;;;;;24.30;14.30;;;;;;;;;;4974630;28;20510;-74
2023/09/16 07:18:37;;;;;;;22.63;12.93;;;;;;;;;;4973689;28;20486;-74
2023/09/16 07:21:03;;;;;;;20.37;14.37;;;;;;;;;;4973614;28;20907;-74
2023/09/16 07:23:29;;;;;;;20.13;12.57;;;;;;;;;;4973125;28;20428;-74
2023/09/16 07:25:56;;;;;;;20.93;13.93;;;;;;;;;;4973218;28;20436;-73
2023/09/16 07:28:22;;;;;;;17.30;11.77;;;;;;;;;;4973441;28;20440;-73
2023/09/16 07:30:48;;;;;;;20.00;11.93;;;;;;;;;;4971583;28;20903;-73
2023/09/16 07:33:14;;;;;;;20.03;12.47;;;;;;;;;;4973016;28;20551;-73
2023/09/16 07:35:40;;;;;;;19.43;12.90;;;;;;;;;;4973277;28;20942;-72
2023/09/16 07:38:06;;;;;;;20.70;12.80;;;;;;;;;;4973329;28;20815;-72
2023/09/16 07:40:32;;;;;;;22.50;15.33;;;;;;;;;;4973197;28;20471;-72
2023/09/16 07:42:58;;;;;;;25.10;13.10;;;;;;;;;;4973087;28;20763;-73
2023/09/16 07:45:25;;;;;;;14.47;10.80;;;;;;;;;;4973763;28;20439;-76
2023/09/16 07:47:52;;;;;;;21.30;12.37;;;;;;;;;;4973359;28;20504;-76
2023/09/16 07:50:19;;;;;;;17.37;12.17;;;;;;;;;;4973082;28;20424;-77
2023/09/16 07:52:44;;;;;;;21.10;12.77;;;;;;;;;;4973074;28;20946;-74
2023/09/16 07:55:11;;;;;;;22.13;12.90;;;;;;;;;;4951165;28;20556;-74
2023/09/16 07:57:37;;;;;;;17.33;11.90;;;;;;;;;;4947338;29;20757;-74
2023/09/16 08:00:07;;;;;;;22.13;13.17;;;;;;;;;;4949574;28;20465;-74
2023/09/16 08:02:33;;;;;;;19.17;11.77;;;;;;;;;;4958699;28;20420;-75
2023/09/16 08:04:59;;;;;;;16.83;10.30;;;;;;;;;;4953511;28;20424;-72
2023/09/16 08:07:25;;;;;;;14.30;10.90;;;;;;;;;;4966769;28;20440;-74
2023/09/16 08:09:51;;;;;;;21.50;12.23;;;;;;;;;;4973037;28;20779;-69
2023/09/16 08:12:19;;;;;;;20.70;10.60;;;;;;;;;;4972495;28;20431;-70
2023/09/16 08:14:45;;;;;;;20.87;11.20;;;;;;;;;;4972637;28;20547;-70
2023/09/16 08:17:11;;;;;;;17.57;12.00;;;;;;;;;;4972716;28;20447;-69
2023/09/16 08:19:37;;;;;;;16.10;11.63;;;;;;;;;;4972693;28;20466;-70
2023/09/16 08:22:03;;;;;;;17.07;10.20;;;;;;;;;;4971314;28;20456;-69
2023/09/16 08:24:30;;;;;;;19.80;11.40;;;;;;;;;;4972442;28;20938;-69
2023/09/16 08:26:56;;;;;;;15.17;10.50;;;;;;;;;;4972673;28;20415;-69
2023/09/16 08:29:21;;;;;;;21.50;10.77;;;;;;;;;;4972668;28;20419;-69
2023/09/16 08:31:47;;;;;;;14.40;10.60;;;;;;;;;;4972641;28;20424;-69
2023/09/16 08:34:13;;;;;;;17.63;11.13;;;;;;;;;;4972246;28;20428;-69
2023/09/16 08:36:39;;;;;;;13.33;9.73;;;;;;;;;;4972420;28;20505;-69
2023/09/16 08:39:05;;;;;;;16.63;11.27;;;;;;;;;;4972439;28;21029;-69
2023/09/16 08:41:36;;;;;;;13.07;10.47;;;;;;;;;;4972680;28;20946;-69
2023/09/16 08:44:05;;;;;;;11.83;9.40;;;;;;;;;;4972180;28;20419;-69
2023/09/16 08:46:33;;;;;;;18.83;10.43;;;;;;;;;;4972548;28;20404;-69
2023/09/16 08:49:01;;;;;;;15.37;10.67;;;;;;;;;;4972445;28;20420;-70
2023/09/16 08:51:29;;;;;;;14.13;10.33;;;;;;;;;;4972366;28;20420;-70
2023/09/16 08:53:55;;;;;;;11.97;9.00;;;;;;;;;;4970743;28;20428;-70
2023/09/16 08:56:21;;;;;;;14.57;10.03;;;;;;;;;;4972431;28;20503;-71
2023/09/16 08:58:47;;;;;;;14.13;9.20;;;;;;;;;;4973302;28;20423;-71
2023/09/16 09:01:17;;;;;;;13.90;10.73;;;;;;;;;;4974326;28;20424;-71
2023/09/16 09:03:43;;;;;;;13.43;9.07;;;;;;;;;;4937310;29;20932;-71
2023/09/16 09:06:10;;;;;;;15.90;9.97;;;;;;;;;;4936910;29;20433;-71
2023/09/16 09:08:36;;;;;;;11.70;9.33;;;;;;;;;;4956702;28;20494;-69
2023/09/16 09:11:02;;;;;;;12.63;10.50;;;;;;;;;;4975644;28;20439;-69
2023/09/16 09:13:29;;;;;;;12.67;9.83;;;;;;;;;;4975831;28;20419;-69
2023/09/16 09:15:59;;;;;;;10.73;8.50;;;;;;;;;;4975402;28;20457;-69
2023/09/16 09:18:25;;;;;;;14.20;9.43;;;;;;;;;;4974362;28;20499;-68
2023/09/16 09:20:52;;;;;;;11.20;9.10;;;;;;;;;;4975409;28;20474;-69
2023/09/16 09:23:17;;;;;;;13.50;8.90;;;;;;;;;;4975108;28;20507;-71
2023/09/16 09:25:43;;;;;;;13.13;9.10;;;;;;;;;;4974825;28;20474;-69
2023/09/16 09:28:10;;;;;;;11.57;9.20;;;;;;;;;;4975062;28;20415;-69
2023/09/16 09:30:36;;;;;;;11.60;8.10;;;;;;;;;;4975047;28;20962;-70
2023/09/16 09:33:02;;;;;;;10.30;8.30;;;;;;;;;;4974464;28;20416;-68
2023/09/16 09:35:29;;;;;;;10.87;8.50;;;;;;;;;;4974740;28;20923;-69
2023/09/16 09:37:55;;;;;;;12.00;9.07;;;;;;;;;;4975050;28;20447;-69
2023/09/16 09:40:21;;;;;;;14.00;10.00;;;;;;;;;;4974949;28;20459;-69
2023/09/16 09:42:51;;;;;;;13.20;8.40;;;;;;;;;;4974877;28;20412;-69
2023/09/16 09:45:19;;;;;;;13.70;8.00;;;;;;;;;;4975001;28;20428;-69
2023/09/16 09:47:46;;;;;;;10.73;8.10;;;;;;;;;;4973556;28;20463;-69
2023/09/16 09:50:16;;;;;;;10.83;8.23;;;;;;;;;;4975298;28;20443;-69
2023/09/16 09:52:48;;;;;;;9.87;8.07;;;;;;;;;;4974419;28;20416;-69
2023/09/16 09:55:18;;;;;;;11.93;8.60;;;;;;;;;;4973440;28;20808;-69
2023/09/16 09:57:45;;;;;;;9.97;8.07;;;;;;;;;;4974931;28;20427;-69
2023/09/16 10:00:14;;;;;;;11.30;8.30;;;;;;;;;;4974756;28;20466;-71
2023/09/16 10:02:40;;;;;;;9.10;7.30;;;;;;;;;;4973230;28;20859;-69
2023/09/16 10:05:07;;;;;;;14.33;9.30;;;;;;;;;;4974356;28;20471;-70
2023/09/16 10:07:33;;;;;;;13.80;9.90;;;;;;;;;;4974708;28;20416;-70
2023/09/16 10:09:59;;;;;;;12.50;8.83;;;;;;;;;;4974034;28;20423;-70
2023/09/16 10:12:25;;;;;;;10.40;8.03;;;;;;;;;;4974152;28;20422;-70
2023/09/16 10:14:51;;;;;;;13.87;9.07;;;;;;;;;;4974201;28;20477;-70
2023/09/16 10:17:17;;;;;;;10.30;7.33;;;;;;;;;;4974236;28;20847;-70
2023/09/16 10:19:44;;;;;;;14.97;7.87;;;;;;;;;;4974299;28;20498;-69
2023/09/16 10:22:13;;;;;;;9.30;7.53;;;;;;;;;;4974132;28;20444;-68
2023/09/16 10:24:43;;;;;;;10.40;7.27;;;;;;;;;;4974052;28;20432;-68
2023/09/16 10:27:14;;;;;;;11.37;8.50;;;;;;;;;;4974063;28;20412;-70
2023/09/16 10:29:42;;;;;;;11.57;7.20;;;;;;;;;;4972782;28;20420;-69
2023/09/16 10:32:08;;;;;;;8.30;6.27;;;;;;;;;;4973707;28;20903;-69
2023/09/16 10:34:35;;;;;;;9.27;6.40;;;;;;;;;;4973672;28;20930;-69
2023/09/16 10:37:01;;;;;;;8.37;5.83;;;;;;;;;;4973545;28;20547;-70
2023/09/16 10:39:27;;;;;;;8.27;6.13;;;;;;;;;;4973804;28;20863;-70
2023/09/16 10:41:54;;;;;;;8.40;6.13;;;;;;;;;;4973554;28;20498;-70
2023/09/16 10:44:20;;;;;;;9.00;5.30;;;;;;;;;;4973534;28;20435;-69
2023/09/16 10:46:47;;;;;;;6.40;5.30;;;;;;;;;;4973825;28;20911;-70
2023/09/16 10:49:13;;;;;;;9.70;5.63;;;;;;;;;;4973751;28;20772;-70
2023/09/16 10:51:40;;;;;;;6.33;5.30;;;;;;;;;;4973612;28;20412;-71
2023/09/16 10:54:09;;;;;;;6.60;4.43;;;;;;;;;;4973600;28;20479;-69
2023/09/16 10:56:39;;;;;;;6.57;5.40;;;;;;;;;;4973786;28;20440;-70
2023/09/16 10:59:08;;;;;;;5.10;4.80;;;;;;;;;;4973611;28;20800;-70
2023/09/16 11:01:36;;;;;;;6.23;4.90;;;;;;;;;;4973532;28;20880;-70
2023/09/16 11:04:12;;;;;;;7.90;5.10;;;;;;;;;;4971901;28;20439;-70
2023/09/16 11:06:38;;;;;;;7.20;5.10;;;;;;;;;;4972207;28;20447;-70
2023/09/16 11:09:05;;;;;;;6.23;4.93;;;;;;;;;;4973152;28;20427;-69
2023/09/16 11:11:31;;;;;;;6.53;4.50;;;;;;;;;;4973446;28;20416;-70
2023/09/16 11:13:58;;;;;;;4.83;3.27;;;;;;;;;;4972670;28;20479;-70
2023/09/16 11:16:24;;;;;;;4.93;3.80;;;;;;;;;;4973086;28;20981;-70
2023/09/16 11:18:51;;;;;;;4.13;3.70;;;;;;;;;;4972890;28;20420;-71
2023/09/16 11:21:19;;;;;;;4.17;3.80;;;;;;;;;;4972590;28;20408;-70
2023/09/16 11:23:45;;;;;;;4.13;3.50;;;;;;;;;;4971629;28;20431;-69
2023/09/16 11:26:17;;;;;;;4.80;4.20;;;;;;;;;;4973222;28;20432;-69
2023/09/16 11:28:43;;;;;;;3.30;3.10;;;;;;;;;;4973079;28;20779;-69
2023/09/16 11:31:09;;;;;;;5.23;3.90;;;;;;;;;;4973241;28;20407;-70
2023/09/16 11:33:39;;;;;;;4.10;2.73;;;;;;;;;;4972931;28;20910;-70
2023/09/16 11:36:17;;;;;;;3.27;2.70;;;;;;;;;;4972832;28;20894;-71
2023/09/16 11:38:58;;;;;;;3.17;2.77;;;;;;;;;;4973016;28;20415;-70
2023/09/16 11:41:25;;;;;;;3.73;3.53;;;;;;;;;;4972674;28;20985;-70
2023/09/16 11:43:51;;;;;;;5.03;2.77;;;;;;;;;;4972360;28;20455;-70
2023/09/16 11:46:17;;;;;;;3.10;2.80;;;;;;;;;;4973038;28;20428;-70
2023/09/16 11:48:56;;;;;;;3.70;2.70;;;;;;;;;;4972921;28;20403;-70
2023/09/16 11:51:23;;;;;;;4.80;3.20;;;;;;;;;;4972766;28;20754;-70
2023/09/16 11:53:50;;;;;;;4.60;3.60;;;;;;;;;;4972923;28;20459;-69
2023/09/16 11:56:16;;;;;;;4.40;3.03;;;;;;;;;;4972884;28;20434;-69
2023/09/16 11:58:43;;;;;;;6.27;3.40;;;;;;;;;;4973277;28;20404;-69
2023/09/16 12:01:10;;;;;;;4.07;2.90;;;;;;;;;;4973192;28;20578;-70
2023/09/16 12:03:37;;;;;;;3.20;2.60;;;;;;;;;;4972439;28;20408;-72
2023/09/16 12:06:03;;;;;;;3.30;2.70;;;;;;;;;;4972604;28;20515;-70
2023/09/16 12:08:30;;;;;;;4.30;2.30;;;;;;;;;;4972602;28;20416;-69
2023/09/16 12:10:56;;;;;;;2.63;1.40;;;;;;;;;;4972827;28;20428;-69
2023/09/16 12:13:31;;;;;;;2.73;2.23;;;;;;;;;;4972223;28;20423;-69
2023/09/16 12:15:58;;;;;;;2.90;2.20;;;;;;;;;;4972943;28;20458;-69
2023/09/16 12:18:24;;;;;;;2.07;1.93;;;;;;;;;;4973105;28;20415;-69
2023/09/16 12:20:50;;;;;;;3.30;2.10;;;;;;;;;;4972891;28;20471;-69
2023/09/16 12:23:16;;;;;;;3.83;2.37;;;;;;;;;;4972849;28;20447;-69
2023/09/16 12:25:43;;;;;;;4.00;2.57;;;;;;;;;;4972578;28;20794;-69
2023/09/16 12:28:17;;;;;;;3.33;2.57;;;;;;;;;;4972321;28;20408;-72
2023/09/16 12:30:44;;;;;;;4.60;2.53;;;;;;;;;;4971927;28;20925;-71
2023/09/16 12:33:13;;;;;;;3.90;3.20;;;;;;;;;;4974285;28;20422;-69
2023/09/16 12:35:39;;;;;;;4.00;3.03;;;;;;;;;;4975787;28;20456;-70
2023/09/16 12:38:06;;;;;;;4.17;3.20;;;;;;;;;;4975967;28;20414;-68
2023/09/16 12:40:33;;;;;;;4.20;3.10;;;;;;;;;;4975687;28;20650;-69
2023/09/16 12:42:59;;;;;;;8.33;3.03;;;;;;;;;;4975202;28;20966;-69
2023/09/16 12:45:26;;;;;;;3.77;3.00;;;;;;;;;;4975647;28;20531;-69
2023/09/16 12:47:53;;;;;;;2.33;2.17;;;;;;;;;;4975620;28;20416;-68
2023/09/16 12:50:19;;;;;;;2.70;2.30;;;;;;;;;;4976136;28;20891;-68
2023/09/16 12:52:45;;;;;;;3.27;2.70;;;;;;;;;;4975602;28;20423;-68
2023/09/16 12:55:12;;;;;;;4.40;3.10;;;;;;;;;;4975876;28;20747;-68
2023/09/16 12:57:39;;;;;;;2.73;2.40;;;;;;;;;;4975837;28;20428;-69
2023/09/16 13:00:08;;;;;;;5.10;2.80;;;;;;;;;;4975652;28;20474;-67
2023/09/16 13:02:36;;;;;;;2.87;2.40;;;;;;;;;;4975194;28;20404;-68
2023/09/16 13:05:16;;;;;;;4.70;2.20;;;;;;;;;;4975487;28;20485;-67
2023/09/16 13:07:44;;;;;;;3.30;2.93;;;;;;;;;;4975267;28;20407;-68
2023/09/16 13:10:10;;;;;;;3.27;2.60;;;;;;;;;;4975134;28;20431;-68
2023/09/16 13:12:36;;;;;;;4.33;3.13;;;;;;;;;;4975034;28;20415;-69
2023/09/16 13:15:02;;;;;;;5.00;3.50;;;;;;;;;;4974830;28;20455;-69
2023/09/16 13:17:28;;;;;;;3.40;2.63;;;;;;;;;;4975526;28;20915;-69
2023/09/16 13:20:00;;;;;;;5.10;3.60;;;;;;;;;;4974792;28;20499;-69
2023/09/16 13:22:27;;;;;;;3.77;3.03;;;;;;;;;;4936405;29;20433;-69
2023/09/16 13:24:53;;;;;;;4.43;3.13;;;;;;;;;;4936783;29;20429;-69
2023/09/16 13:27:19;;;;;;;10.60;2.67;;;;;;;;;;4936744;29;20413;-69
2023/09/16 13:29:45;;;;;;;3.63;3.10;;;;;;;;;;4936594;29;20413;-69
2023/09/16 13:32:11;;;;;;;4.53;3.43;;;;;;;;;;4948586;28;20926;-69
2023/09/16 13:34:38;;;;;;;5.57;2.90;;;;;;;;;;4975063;28;20431;-68
2023/09/16 13:37:04;;;;;;;3.67;2.70;;;;;;;;;;4975287;28;20760;-69
2023/09/16 13:39:40;;;;;;;3.20;2.90;;;;;;;;;;4975006;28;20550;-69
2023/09/16 13:42:06;;;;;;;3.83;2.73;;;;;;;;;;4974900;28;20760;-69
2023/09/16 13:44:32;;;;;;;3.17;2.50;;;;;;;;;;4973860;28;20456;-71
2023/09/16 13:46:58;;;;;;;3.30;2.90;;;;;;;;;;4974921;28;20419;-71
2023/09/16 13:49:24;;;;;;;4.83;3.07;;;;;;;;;;4974511;28;20439;-68
2023/09/16 13:51:51;;;;;;;3.27;3.03;;;;;;;;;;4974930;28;20502;-68
2023/09/16 13:54:17;;;;;;;2.67;2.50;;;;;;;;;;4974656;28;20837;-68
2023/09/16 13:56:43;;;;;;;5.27;2.80;;;;;;;;;;4974509;28;20408;-68
2023/09/16 13:59:10;;;;;;;7.03;2.93;;;;;;;;;;4974939;28;20479;-69
2023/09/16 14:01:36;;;;;;;3.10;2.80;;;;;;;;;;4974393;28;20427;-68
2023/09/16 14:04:02;;;;;;;3.77;2.97;;;;;;;;;;4974327;28;20426;-69
2023/09/16 14:06:29;;;;;;;5.30;3.17;;;;;;;;;;4974325;28;20412;-69
2023/09/16 14:08:55;;;;;;;3.20;2.90;;;;;;;;;;4973585;28;20438;-69
2023/09/16 14:11:21;;;;;;;3.03;2.87;;;;;;;;;;4974273;28;20412;-71
2023/09/16 14:13:47;;;;;;;5.37;3.00;;;;;;;;;;4974036;28;20777;-70
2023/09/16 14:16:13;;;;;;;3.60;2.80;;;;;;;;;;4974146;28;20447;-71
2023/09/16 14:18:39;;;;;;;5.40;2.90;;;;;;;;;;4974369;28;20773;-71
2023/09/16 14:21:05;;;;;;;3.83;2.93;;;;;;;;;;4973977;28;20570;-69
2023/09/16 14:23:31;;;;;;;5.03;2.90;;;;;;;;;;4973859;28;20808;-70
2023/09/16 14:25:58;;;;;;;3.00;2.70;;;;;;;;;;4973950;28;20959;-70
2023/09/16 14:28:24;;;;;;;3.77;2.83;;;;;;;;;;4974258;28;20414;-69
2023/09/16 14:30:50;;;;;;;6.70;2.70;;;;;;;;;;4974054;28;20779;-70
2023/09/16 14:33:17;;;;;;;4.50;3.33;;;;;;;;;;4973470;28;20487;-69
2023/09/16 14:35:43;;;;;;;3.90;2.80;;;;;;;;;;4973891;28;20847;-69
2023/09/16 14:38:09;;;;;;;3.40;2.90;;;;;;;;;;4973905;28;20420;-69
2023/09/16 14:40:35;;;;;;;8.93;2.80;;;;;;;;;;4973591;28;20459;-70
2023/09/16 14:43:01;;;;;;;5.03;3.23;;;;;;;;;;4973622;28;20416;-69
2023/09/16 14:45:27;;;;;;;5.27;2.93;;;;;;;;;;4973569;28;20974;-69
2023/09/16 14:47:53;;;;;;;5.97;3.07;;;;;;;;;;4973353;28;20923;-69
2023/09/16 14:50:18;;;;;;;3.30;2.87;;;;;;;;;;4973842;28;20416;-68
2023/09/16 14:52:44;;;;;;;4.23;3.00;;;;;;;;;;4973348;28;20408;-69
2023/09/16 14:55:11;;;;;;;5.40;3.20;;;;;;;;;;4973237;28;20431;-69
2023/09/16 14:57:37;;;;;;;3.10;2.97;;;;;;;;;;4973010;28;20419;-68
2023/09/16 15:00:06;;;;;;;4.30;3.20;;;;;;;;;;4973149;28;20490;-69
2023/09/16 15:02:32;;;;;;;4.47;3.50;;;;;;;;;;4973084;28;20650;-69
2023/09/16 15:04:58;;;;;;;5.27;2.90;;;;;;;;;;4972972;28;20804;-69
2023/09/16 15:07:24;;;;;;;3.77;3.03;;;;;;;;;;4973120;28;20475;-69
2023/09/16 15:09:53;;;;;;;6.20;3.17;;;;;;;;;;4973101;28;20915;-69
2023/09/16 15:12:19;;;;;;;5.73;3.20;;;;;;;;;;4973146;28;20644;-69
2023/09/16 15:14:45;;;;;;;6.47;3.20;;;;;;;;;;4973117;28;20476;-69
2023/09/16 15:17:12;;;;;;;4.20;2.97;;;;;;;;;;4973169;28;20416;-69
2023/09/16 15:19:38;;;;;;;3.10;2.90;;;;;;;;;;4973197;28;20463;-69
2023/09/16 15:22:07;;;;;;;4.40;3.40;;;;;;;;;;4972676;28;20404;-70
2023/09/16 15:24:33;;;;;;;6.00;3.10;;;;;;;;;;4973030;28;20447;-71
2023/09/16 15:26:59;;;;;;;4.77;3.20;;;;;;;;;;4973010;28;20416;-70
2023/09/16 15:29:25;;;;;;;4.27;3.70;;;;;;;;;;4972980;28;20462;-67
2023/09/16 15:31:51;;;;;;;5.03;3.20;;;;;;;;;;4973104;28;20472;-68
2023/09/16 15:34:17;;;;;;;4.20;3.47;;;;;;;;;;4973488;28;20553;-68
2023/09/16 15:36:44;;;;;;;5.30;3.37;;;;;;;;;;4973011;28;20527;-69
2023/09/16 15:39:11;;;;;;;4.60;3.30;;;;;;;;;;4973133;28;20411;-69
2023/09/16 15:41:37;;;;;;;5.90;3.53;;;;;;;;;;4973164;28;20955;-68
2023/09/16 15:44:03;;;;;;;4.30;3.37;;;;;;;;;;4972826;28;20424;-68
2023/09/16 15:46:30;;;;;;;4.17;3.50;;;;;;;;;;4973151;28;20899;-69
2023/09/16 15:48:56;;;;;;;5.60;3.73;;;;;;;;;;4973362;28;20746;-69
2023/09/16 15:51:22;;;;;;;4.83;3.60;;;;;;;;;;4972685;28;20776;-69
2023/09/16 15:53:48;;;;;;;4.63;3.13;;;;;;;;;;4972663;28;20422;-68
2023/09/16 15:56:15;;;;;;;4.57;3.60;;;;;;;;;;4972349;28;21086;-68
2023/09/16 15:58:43;;;;;;;3.27;3.03;;;;;;;;;;4973036;28;20412;-69
2023/09/16 16:01:12;;;;;;;7.13;3.50;;;;;;;;;;4972662;28;20471;-71
2023/09/16 16:03:40;;;;;;;5.67;3.60;;;;;;;;;;4975029;28;20415;-69
2023/09/16 16:06:06;;;;;;;5.67;3.40;;;;;;;;;;4974918;28;20451;-69
2023/09/16 16:08:32;;;;;;;3.17;2.90;;;;;;;;;;4975920;28;20419;-68
2023/09/16 16:10:58;;;;;;;3.80;3.20;;;;;;;;;;4977485;28;20419;-68
2023/09/16 16:13:24;;;;;;;5.43;4.13;;;;;;;;;;4976801;28;20423;-69
2023/09/16 16:15:53;;;;;;;4.30;3.27;;;;;;;;;;4976788;28;20459;-68
2023/09/16 16:18:22;;;;;;;7.63;3.90;;;;;;;;;;4978374;28;20411;-70
2023/09/16 16:20:48;;;;;;;4.13;3.23;;;;;;;;;;4978845;28;20541;-69
2023/09/16 16:23:15;;;;;;;7.43;4.20;;;;;;;;;;4982189;28;20516;-69
2023/09/16 16:25:41;;;;;;;7.20;4.07;;;;;;;;;;4980765;28;20475;-68
2023/09/16 16:28:07;;;;;;;6.90;3.73;;;;;;;;;;4982471;28;20408;-68
2023/09/16 16:30:33;;;;;;;6.23;3.97;;;;;;;;;;4982333;28;20447;-69
2023/09/16 16:32:59;;;;;;;7.33;3.90;;;;;;;;;;4981987;28;20546;-68
2023/09/16 16:35:25;;;;;;;6.03;3.67;;;;;;;;;;4980275;28;20454;-69
2023/09/16 16:37:51;;;;;;;8.10;4.07;;;;;;;;;;4976292;28;20970;-68
2023/09/16 16:40:17;;;;;;;5.70;3.80;;;;;;;;;;4980488;28;20487;-68
2023/09/16 16:42:45;;;;;;;11.80;4.83;;;;;;;;;;4976274;28;20412;-69
2023/09/16 16:45:12;;;;;;;4.40;3.63;;;;;;;;;;4975871;28;20440;-68
2023/09/16 16:47:39;;;;;;;7.10;4.27;;;;;;;;;;4976314;28;20502;-70
2023/09/16 16:50:06;;;;;;;5.33;3.33;;;;;;;;;;4976401;28;20426;-70
2023/09/16 16:52:32;;;;;;;5.30;3.97;;;;;;;;;;4975555;28;20423;-69
2023/09/16 16:54:58;;;;;;;5.07;4.10;;;;;;;;;;4975472;28;20450;-69
2023/09/16 16:57:24;;;;;;;6.00;4.27;;;;;;;;;;4975476;28;20467;-68
2023/09/16 16:59:50;;;;;;;4.30;3.50;;;;;;;;;;4974379;28;20518;-70
2023/09/16 17:02:16;;;;;;;6.03;4.03;;;;;;;;;;4975438;28;20404;-70
2023/09/16 17:04:43;;;;;;;5.27;4.00;;;;;;;;;;4975836;28;20466;-70
2023/09/16 17:07:09;;;;;;;4.80;3.53;;;;;;;;;;4975515;28;20461;-68
2023/09/16 17:09:35;;;;;;;6.27;3.70;;;;;;;;;;4975187;28;20411;-69
2023/09/16 17:12:02;;;;;;;6.27;4.70;;;;;;;;;;4974903;28;20909;-68
2023/09/16 17:14:28;;;;;;;11.17;6.70;;;;;;;;;;4975339;28;20447;-69
2023/09/16 17:16:54;;;;;;;7.17;5.10;;;;;;;;;;4975546;28;20474;-69
2023/09/16 17:19:20;;;;;;;6.67;4.80;;;;;;;;;;4974556;28;20451;-70
2023/09/16 17:21:46;;;;;;;10.20;6.10;;;;;;;;;;4975605;28;20430;-71
2023/09/16 17:24:12;;;;;;;8.67;4.80;;;;;;;;;;4990237;28;20447;-71
2023/09/16 17:26:38;;;;;;;10.33;6.40;;;;;;;;;;4983139;28;20427;-70
2023/09/16 17:29:04;;;;;;;10.33;5.90;;;;;;;;;;4975481;28;20420;-69
2023/09/16 17:31:30;;;;;;;8.27;5.30;;;;;;;;;;4974985;28;20515;-69
2023/09/16 17:33:56;;;;;;;7.80;5.30;;;;;;;;;;4974820;28;20404;-71
2023/09/16 17:36:23;;;;;;;9.63;5.37;;;;;;;;;;4975133;28;20418;-71
2023/09/16 17:38:49;;;;;;;8.47;5.67;;;;;;;;;;4974994;28;20432;-69
2023/09/16 17:41:17;;;;;;;8.33;5.20;;;;;;;;;;4974855;28;20479;-70
2023/09/16 17:43:44;;;;;;;9.67;5.30;;;;;;;;;;4975371;28;20411;-70
2023/09/16 17:46:10;;;;;;;10.03;6.33;;;;;;;;;;4975118;28;20436;-69
2023/09/16 17:48:35;;;;;;;17.40;7.93;;;;;;;;;;4975513;28;20410;-69
2023/09/16 17:51:01;;;;;;;13.57;7.10;;;;;;;;;;4974452;28;20455;-69
2023/09/16 17:53:29;;;;;;;11.60;6.77;;;;;;;;;;4974520;28;20424;-69
2023/09/16 17:55:55;;;;;;;11.53;6.90;;;;;;;;;;4974942;28;20519;-71
2023/09/16 17:58:21;;;;;;;18.13;6.53;;;;;;;;;;4974883;28;20443;-72
2023/09/16 18:00:47;;;;;;;14.10;7.43;;;;;;;;;;4975037;28;20514;-73
2023/09/16 18:03:14;;;;;;;12.00;6.87;;;;;;;;;;4974771;28;20496;-68
2023/09/16 18:05:40;;;;;;;12.43;8.00;;;;;;;;;;4974535;28;20436;-69
2023/09/16 18:08:06;;;;;;;15.30;6.63;;;;;;;;;;4974807;28;20506;-69
2023/09/16 18:10:32;;;;;;;17.00;7.60;;;;;;;;;;4974847;28;20439;-69
2023/09/16 18:12:58;;;;;;;13.33;7.40;;;;;;;;;;4974407;28;20416;-69
2023/09/16 18:15:26;;;;;;;9.87;6.20;;;;;;;;;;4997823;23;21071;-72
2023/09/16 18:17:52;;;;;;;14.50;9.03;;;;;;;;;;4974187;28;20418;-72
2023/09/16 18:20:19;;;;;;;8.53;5.87;;;;;;;;;;4974214;28;20463;-72
2023/09/16 18:22:45;;;;;;;11.40;6.27;;;;;;;;;;4973806;28;20930;-72
2023/09/16 18:25:11;;;;;;;12.50;7.20;;;;;;;;;;4974207;28;20799;-72
2023/09/16 18:27:37;;;;;;;10.17;6.80;;;;;;;;;;4973574;28;20507;-71
2023/09/16 18:30:04;;;;;;;9.57;6.07;;;;;;;;;;4973794;28;20499;-72
2023/09/16 18:32:30;;;;;;;12.00;7.30;;;;;;;;;;4973583;28;20939;-72
2023/09/16 18:34:56;;;;;;;10.47;6.60;;;;;;;;;;4973841;28;20938;-72
2023/09/16 18:37:22;;;;;;;18.27;9.00;;;;;;;;;;4973902;28;20554;-72
2023/09/16 18:39:48;;;;;;;21.90;11.43;;;;;;;;;;4973907;28;20514;-72
2023/09/16 18:42:14;;;;;;;16.77;9.27;;;;;;;;;;4973723;28;20419;-72
2023/09/16 18:44:40;;;;;;;21.57;11.30;;;;;;;;;;4973709;28;20490;-72
2023/09/16 18:47:06;;;;;;;19.03;10.40;;;;;;;;;;4973422;28;20463;-72
2023/09/16 18:49:37;;;;;;;15.60;10.30;;;;;;;;;;4973564;28;20404;-71
2023/09/16 18:52:03;;;;;;;18.57;11.10;;;;;;;;;;4973413;28;20598;-72
2023/09/16 18:54:29;;;;;;;27.50;15.47;;;;;;;;;;4972534;28;20423;-71
2023/09/16 18:56:55;;;;;;;19.53;11.10;;;;;;;;;;4973387;28;20413;-72
2023/09/16 18:59:21;;;;;;;15.20;9.23;;;;;;;;;;4973301;28;20466;-71
2023/09/16 19:01:47;;;;;;;16.47;10.67;;;;;;;;;;4973073;28;20454;-71
2023/09/16 19:04:15;;;;;;;15.43;8.73;;;;;;;;;;4973186;28;20408;-71
2023/09/16 19:06:42;;;;;;;21.33;12.00;;;;;;;;;;4973541;28;20438;-71
2023/09/16 19:09:08;;;;;;;26.80;12.70;;;;;;;;;;4973315;28;20427;-71
2023/09/16 19:11:34;;;;;;;12.10;8.97;;;;;;;;;;4973569;28;20424;-71
2023/09/16 19:14:01;;;;;;;14.97;8.00;;;;;;;;;;4973213;28;20459;-71
2023/09/16 19:16:28;;;;;;;11.47;7.53;;;;;;;;;;4973233;28;20542;-71
2023/09/16 19:18:54;;;;;;;14.30;6.53;;;;;;;;;;4975161;28;20904;-71
2023/09/16 19:21:20;;;;;;;12.10;6.50;;;;;;;;;;4973090;28;20470;-71
2023/09/16 19:23:47;;;;;;;39.17;21.40;;;;;;;;;;4972670;28;20459;-71
2023/09/16 19:26:13;;;;;;;14.30;8.23;;;;;;;;;;4973336;28;20470;-71
2023/09/16 19:28:39;;;;;;;23.00;11.87;;;;;;;;;;4972464;28;20446;-71
2023/09/16 19:31:05;;;;;;;19.30;9.20;;;;;;;;;;4972810;28;20916;-71
2023/09/16 19:33:31;;;;;;;18.87;9.47;;;;;;;;;;4972043;28;20423;-71
2023/09/16 19:36:00;;;;;;;15.27;8.17;;;;;;;;;;4977708;28;20432;-71
2023/09/16 19:38:26;;;;;;;16.80;9.20;;;;;;;;;;4977856;28;20427;-71
2023/09/16 19:40:52;;;;;;;15.10;10.00;;;;;;;;;;4977480;28;20458;-71
2023/09/16 19:43:18;;;;;;;16.50;9.87;;;;;;;;;;4972611;28;20861;-72
2023/09/16 19:45:44;;;;;;;16.20;8.57;;;;;;;;;;4973402;28;20830;-72
2023/09/16 19:48:10;;;;;;;12.43;7.73;;;;;;;;;;4971511;28;20420;-70
2023/09/16 19:50:36;;;;;;;11.23;7.07;;;;;;;;;;4973001;28;20415;-71
2023/09/16 19:53:03;;;;;;;14.20;7.80;;;;;;;;;;4972584;28;20442;-70
2023/09/16 19:55:30;;;;;;;16.20;8.50;;;;;;;;;;4972569;28;20432;-71
2023/09/16 19:57:56;;;;;;;16.27;8.23;;;;;;;;;;4973196;28;20412;-70
2023/09/16 20:00:22;;;;;;;10.70;7.43;;;;;;;;;;4973007;28;20510;-71
2023/09/16 20:02:52;;;;;;;11.27;7.57;;;;;;;;;;4972644;28;20412;-70
2023/09/16 20:05:21;;;;;;;12.47;6.93;;;;;;;;;;4972962;28;20427;-71
2023/09/16 20:07:47;;;;;;;12.60;7.60;;;;;;;;;;4972682;28;20867;-70
2023/09/16 20:10:13;;;;;;;14.73;8.23;;;;;;;;;;4972137;28;20511;-71
2023/09/16 20:12:39;;;;;;;14.97;7.90;;;;;;;;;;4972370;28;20416;-70
2023/09/16 20:15:05;;;;;;;13.30;8.47;;;;;;;;;;4972231;28;20814;-70
2023/09/16 20:17:31;;;;;;;14.60;7.70;;;;;;;;;;4972505;28;20415;-72
2023/09/16 20:19:57;;;;;;;12.00;7.87;;;;;;;;;;4972534;28;20617;-70
2023/09/16 20:22:23;;;;;;;16.13;8.17;;;;;;;;;;4972346;28;20493;-70
2023/09/16 20:24:49;;;;;;;9.57;8.10;;;;;;;;;;4972542;28;20805;-71
2023/09/16 20:27:15;;;;;;;17.03;9.10;;;;;;;;;;4972882;28;20419;-70
2023/09/16 20:29:41;;;;;;;11.77;7.97;;;;;;;;;;4973065;28;20980;-72
2023/09/16 20:32:07;;;;;;;10.37;6.80;;;;;;;;;;4972521;28;20412;-71